CFREE KBED-CYTZ
Flight info
| Callsign | CFREE |
|---|---|
| Flight time | N/A |
| Altitude | 22000 |
| Route | GLYDE DCT CTR DCT STUBN DCT BENEE DCT WOZEE |
| Aircraft | TBM8/L-SDFGRWY/S |
Departure
| Time | 2026-05-07 00:24 |
|---|---|
| Airport | Laurence G Hanscom Field (KBED) |
Arrival
| Time | N/A |
|---|---|
| Airport | Billy Bishop Toronto City Airport (CYTZ) |
| Time | Latitude | Longitude | Altitude | Speed | Heading |
|---|---|---|---|---|---|
| 2026-05-07 00:04 | 42.46529 | -71.29869 | 130 ft | 0 kts | 208° |
| 2026-05-07 00:17 | 42.46496 | -71.29865 | 129 ft | 13 kts | 148° |
| 2026-05-07 00:18 | 42.46447 | -71.29814 | 126 ft | 2 kts | 90° |
| 2026-05-07 00:18 | 42.46473 | -71.29784 | 128 ft | 8 kts | 4° |
| 2026-05-07 00:18 | 42.46529 | -71.29804 | 128 ft | 8 kts | 340° |
| 2026-05-07 00:18 | 42.46579 | -71.29831 | 129 ft | 7 kts | 336° |
| 2026-05-07 00:19 | 42.46631 | -71.29861 | 131 ft | 10 kts | 338° |
| 2026-05-07 00:19 | 42.46721 | -71.29910 | 132 ft | 18 kts | 338° |
| 2026-05-07 00:19 | 42.46856 | -71.29982 | 135 ft | 21 kts | 338° |
| 2026-05-07 00:19 | 42.46958 | -71.30036 | 137 ft | 13 kts | 343° |
| 2026-05-07 00:20 | 42.47062 | -71.30025 | 137 ft | 18 kts | 7° |
| 2026-05-07 00:20 | 42.47213 | -71.29999 | 140 ft | 25 kts | 4° |
| 2026-05-07 00:20 | 42.47267 | -71.29874 | 140 ft | 15 kts | 79° |
| 2026-05-07 00:20 | 42.47288 | -71.29737 | 138 ft | 14 kts | 78° |
| 2026-05-07 00:21 | 42.47306 | -71.29614 | 138 ft | 12 kts | 78° |
| 2026-05-07 00:21 | 42.47323 | -71.29498 | 137 ft | 14 kts | 78° |
| 2026-05-07 00:21 | 42.47346 | -71.29340 | 133 ft | 18 kts | 76° |
| 2026-05-07 00:21 | 42.47386 | -71.29189 | 129 ft | 16 kts | 77° |
| 2026-05-07 00:22 | 42.47403 | -71.29063 | 131 ft | 11 kts | 79° |
| 2026-05-07 00:22 | 42.47415 | -71.28971 | 131 ft | 10 kts | 81° |
| 2026-05-07 00:22 | 42.47428 | -71.28868 | 129 ft | 12 kts | 81° |
| 2026-05-07 00:22 | 42.47444 | -71.28738 | 131 ft | 16 kts | 78° |
| 2026-05-07 00:23 | 42.47458 | -71.28585 | 129 ft | 14 kts | 109° |
| 2026-05-07 00:23 | 42.47390 | -71.28610 | 129 ft | 18 kts | 214° |
| 2026-05-07 00:23 | 42.47152 | -71.28860 | 126 ft | 68 kts | 217° |
| 2026-05-07 00:23 | 42.46676 | -71.29345 | 245 ft | 94 kts | 210° |
| 2026-05-07 00:24 | 42.46083 | -71.29872 | 481 ft | 110 kts | 211° |
| 2026-05-07 00:24 | 42.45439 | -71.30489 | 801 ft | 118 kts | 212° |
| 2026-05-07 00:24 | 42.44755 | -71.31083 | 1249 ft | 114 kts | 212° |
| 2026-05-07 00:24 | 42.44099 | -71.31684 | 1717 ft | 111 kts | 219° |
| 2026-05-07 00:25 | 42.43528 | -71.32368 | 2100 ft | 113 kts | 243° |
| 2026-05-07 00:25 | 42.43247 | -71.33445 | 2405 ft | 129 kts | 247° |
| 2026-05-07 00:25 | 42.42906 | -71.34622 | 2704 ft | 139 kts | 248° |
| 2026-05-07 00:25 | 42.42503 | -71.35844 | 3002 ft | 145 kts | 243° |
| 2026-05-07 00:26 | 42.42060 | -71.37091 | 3313 ft | 149 kts | 246° |
| 2026-05-07 00:26 | 42.41624 | -71.38388 | 3618 ft | 154 kts | 246° |
| 2026-05-07 00:26 | 42.41166 | -71.39715 | 3923 ft | 157 kts | 245° |
| 2026-05-07 00:26 | 42.40703 | -71.41067 | 4226 ft | 159 kts | 245° |
| 2026-05-07 00:27 | 42.40232 | -71.42426 | 4531 ft | 160 kts | 245° |
| 2026-05-07 00:27 | 42.39758 | -71.43797 | 4834 ft | 161 kts | 246° |
| 2026-05-07 00:27 | 42.39282 | -71.45177 | 5128 ft | 162 kts | 246° |
| 2026-05-07 00:27 | 42.38801 | -71.46569 | 5426 ft | 164 kts | 246° |
| 2026-05-07 00:28 | 42.38319 | -71.47963 | 5727 ft | 164 kts | 246° |
| 2026-05-07 00:28 | 42.37834 | -71.49364 | 6032 ft | 165 kts | 246° |
| 2026-05-07 00:28 | 42.37365 | -71.50780 | 6322 ft | 165 kts | 249° |
| 2026-05-07 00:28 | 42.36846 | -71.52178 | 6603 ft | 167 kts | 243° |
| 2026-05-07 00:29 | 42.36352 | -71.53594 | 6902 ft | 166 kts | 245° |
| 2026-05-07 00:29 | 42.35878 | -71.55018 | 7207 ft | 166 kts | 249° |
| 2026-05-07 00:30 | 42.34455 | -71.59277 | 8024 ft | 170 kts | 245° |
| 2026-05-07 00:30 | 42.33935 | -71.60699 | 8315 ft | 171 kts | 245° |
| 2026-05-07 00:30 | 42.33412 | -71.62143 | 8599 ft | 172 kts | 245° |
| 2026-05-07 00:30 | 42.32905 | -71.63580 | 8959 ft | 168 kts | 246° |
| 2026-05-07 00:31 | 42.32406 | -71.65004 | 9271 ft | 168 kts | 246° |
| 2026-05-07 00:31 | 42.31912 | -71.66441 | 9556 ft | 169 kts | 246° |